Time;durP1;ratioP1;P1;durP2;ratioP2;P2;SDS_P1;SDS_P2;PMS_P1;PMS_P2;Temp;Humidity;BMP_temperature;BMP_pressure;BME280_temperature;BME280_humidity;BME280_pressure;Samples;Min_cycle;Max_cycle;Signal;HPM_P1;HPM_P2
2023/12/20 00:02:02;;;;;;;3.60;3.30;;;8.00;34.10;;;;;;5020218;28;20237;-59
2023/12/20 00:04:29;;;;;;;3.37;3.07;;;8.10;34.30;;;;;;5019856;28;20226;-59
2023/12/20 00:06:56;;;;;;;3.73;3.43;;;8.10;34.10;;;;;;5023015;28;20260;-58
2023/12/20 00:09:22;;;;;;;3.27;2.97;;;8.10;34.40;;;;;;5026972;28;20214;-59
2023/12/20 00:11:49;;;;;;;3.53;3.27;;;8.10;34.60;;;;;;5020228;28;20271;-59
2023/12/20 00:14:15;;;;;;;3.23;3.03;;;8.20;34.70;;;;;;5024782;28;20244;-58
2023/12/20 00:16:42;;;;;;;3.60;3.30;;;8.10;34.60;;;;;;5021955;28;20284;-59
2023/12/20 00:19:08;;;;;;;3.53;3.17;;;8.10;34.60;;;;;;5024924;28;20253;-58
2023/12/20 00:21:35;;;;;;;3.60;3.30;;;8.10;35.30;;;;;;5030598;28;20210;-59
2023/12/20 00:24:01;;;;;;;3.00;2.80;;;8.10;35.50;;;;;;5022613;28;20225;-59
2023/12/20 00:26:28;;;;;;;3.67;3.37;;;8.10;35.80;;;;;;5026025;28;20226;-57
2023/12/20 00:28:55;;;;;;;3.40;3.10;;;8.20;36.00;;;;;;5026392;28;20216;-58
2023/12/20 00:31:21;;;;;;;4.17;3.33;;;8.10;36.00;;;;;;5031360;28;20680;-59
2023/12/20 00:33:48;;;;;;;3.20;2.90;;;8.10;35.70;;;;;;5030982;28;20237;-54
2023/12/20 00:36:14;;;;;;;3.00;2.80;;;8.10;35.80;;;;;;5030906;28;20264;-58
2023/12/20 00:38:41;;;;;;;3.13;2.80;;;8.10;35.70;;;;;;5029791;28;20635;-59
2023/12/20 00:41:07;;;;;;;2.73;2.53;;;8.10;35.30;;;;;;5021660;28;20221;-58
2023/12/20 00:43:34;;;;;;;3.03;2.77;;;8.10;35.90;;;;;;5027988;28;20789;-58
2023/12/20 00:46:00;;;;;;;4.27;2.53;;;8.10;35.20;;;;;;5030877;28;20268;-59
2023/12/20 00:48:28;;;;;;;3.00;2.70;;;8.10;34.60;;;;;;5023527;28;20224;-59
2023/12/20 00:50:54;;;;;;;2.73;2.53;;;8.10;34.60;;;;;;5030159;28;20617;-59
2023/12/20 00:53:21;;;;;;;2.90;2.70;;;8.20;34.70;;;;;;5029040;28;20213;-57
2023/12/20 00:55:48;;;;;;;2.70;2.50;;;8.20;34.70;;;;;;5025550;28;20261;-58
2023/12/20 00:58:15;;;;;;;2.73;2.53;;;8.20;34.00;;;;;;5029118;28;20292;-59
2023/12/20 01:00:42;;;;;;;2.63;2.43;;;8.10;33.60;;;;;;5026378;28;20214;-57
2023/12/20 01:03:08;;;;;;;2.53;2.33;;;8.20;33.60;;;;;;5029056;28;20229;-59
2023/12/20 01:05:35;;;;;;;2.47;2.30;;;8.30;32.50;;;;;;5031845;28;20268;-59
2023/12/20 01:08:02;;;;;;;2.53;2.33;;;8.20;32.70;;;;;;5027636;28;20300;-59
2023/12/20 01:10:29;;;;;;;2.40;2.20;;;8.20;32.70;;;;;;5033681;28;20263;-58
2023/12/20 01:12:55;;;;;;;2.63;2.50;;;8.40;32.80;;;;;;5029577;28;20258;-59
2023/12/20 01:15:23;;;;;;;2.53;2.43;;;8.40;32.50;;;;;;5032406;28;20236;-58
2023/12/20 01:17:51;;;;;;;3.43;2.60;;;8.40;32.60;;;;;;5030552;28;20211;-59
2023/12/20 01:20:19;;;;;;;2.50;2.30;;;8.30;32.40;;;;;;5036890;28;20240;-59
2023/12/20 01:22:46;;;;;;;2.30;2.20;;;8.40;33.00;;;;;;5037372;28;20217;-59
2023/12/20 01:25:12;;;;;;;3.07;2.17;;;8.30;33.20;;;;;;5037018;28;20257;-57
2023/12/20 01:27:39;;;;;;;2.10;2.00;;;8.40;33.30;;;;;;5030879;28;20256;-56
2023/12/20 01:30:05;;;;;;;2.77;2.50;;;8.30;32.90;;;;;;5020242;28;20264;-58
2023/12/20 01:32:32;;;;;;;2.00;1.90;;;8.30;33.60;;;;;;5032906;28;20204;-60
2023/12/20 01:34:58;;;;;;;2.23;2.10;;;8.40;33.50;;;;;;5027089;28;20230;-59
2023/12/20 01:37:26;;;;;;;2.63;2.43;;;8.40;33.50;;;;;;5035776;28;20206;-59
2023/12/20 01:39:53;;;;;;;2.07;1.97;;;8.50;33.70;;;;;;5036659;28;20241;-59
2023/12/20 01:42:19;;;;;;;2.33;2.10;;;8.50;33.90;;;;;;5036888;28;20248;-59
2023/12/20 01:44:46;;;;;;;2.33;2.23;;;8.50;34.10;;;;;;5036341;28;20279;-58
2023/12/20 01:47:12;;;;;;;2.80;2.50;;;8.20;34.70;;;;;;5029827;28;20209;-59
2023/12/20 01:49:39;;;;;;;2.20;2.10;;;8.30;34.90;;;;;;5028439;28;20748;-59
2023/12/20 01:52:05;;;;;;;2.57;2.37;;;8.30;34.80;;;;;;5028439;28;20218;-60
2023/12/20 01:54:32;;;;;;;2.73;2.53;;;8.40;34.90;;;;;;5029064;28;20233;-59
2023/12/20 01:56:58;;;;;;;2.40;2.30;;;8.30;34.80;;;;;;5027191;28;20210;-59
2023/12/20 01:59:25;;;;;;;2.40;2.20;;;8.40;35.10;;;;;;5028840;28;20245;-59
2023/12/20 02:01:51;;;;;;;2.37;2.27;;;8.30;35.20;;;;;;5036245;28;20296;-58
2023/12/20 02:04:18;;;;;;;2.17;2.07;;;8.30;34.80;;;;;;5037031;28;20272;-59
2023/12/20 02:06:44;;;;;;;2.30;2.10;;;8.40;34.90;;;;;;5027179;28;20233;-60
2023/12/20 02:09:10;;;;;;;2.30;2.10;;;8.50;35.00;;;;;;5030218;28;20245;-59
2023/12/20 02:11:37;;;;;;;1.90;1.80;;;8.50;35.00;;;;;;5024542;28;20699;-59
2023/12/20 02:14:03;;;;;;;2.20;2.10;;;8.50;35.00;;;;;;5019269;28;20210;-59
2023/12/20 02:16:30;;;;;;;2.40;2.30;;;8.40;34.90;;;;;;5025459;28;20256;-58
2023/12/20 02:18:56;;;;;;;2.13;2.03;;;8.40;34.90;;;;;;5025757;28;20263;-59
2023/12/20 02:21:23;;;;;;;2.20;2.10;;;8.30;34.80;;;;;;5033546;28;20755;-59
2023/12/20 02:23:49;;;;;;;2.50;2.30;;;8.40;34.80;;;;;;5026895;28;20276;-56
2023/12/20 02:26:16;;;;;;;2.27;2.17;;;8.40;34.90;;;;;;5025481;28;20255;-59
2023/12/20 02:28:42;;;;;;;2.20;2.10;;;8.30;34.80;;;;;;5023891;28;20688;-59
2023/12/20 02:31:09;;;;;;;2.57;2.47;;;8.30;35.60;;;;;;5017570;28;23342;-59
2023/12/20 02:33:35;;;;;;;2.00;1.90;;;8.40;35.40;;;;;;5028206;28;20647;-59
2023/12/20 02:36:02;;;;;;;2.10;1.87;;;8.50;35.40;;;;;;5029203;28;20479;-59
2023/12/20 02:38:28;;;;;;;1.80;1.70;;;8.50;35.70;;;;;;5025174;28;20233;-59
2023/12/20 02:40:55;;;;;;;2.10;1.90;;;8.60;36.00;;;;;;5025008;28;20241;-59
2023/12/20 02:43:21;;;;;;;1.90;1.80;;;8.50;36.00;;;;;;5024727;28;20213;-60
2023/12/20 02:45:48;;;;;;;2.70;1.60;;;8.50;36.20;;;;;;5030260;28;20284;-60
2023/12/20 02:48:14;;;;;;;2.00;1.90;;;8.60;36.30;;;;;;5026271;28;20228;-59
2023/12/20 02:50:41;;;;;;;1.80;1.70;;;8.50;37.10;;;;;;5021202;28;20240;-59
2023/12/20 02:53:07;;;;;;;2.00;1.90;;;8.50;36.80;;;;;;5026733;28;20297;-60
2023/12/20 02:55:34;;;;;;;1.47;1.47;;;8.50;37.40;;;;;;5027379;28;20260;-59
2023/12/20 02:58:00;;;;;;;1.60;1.60;;;8.50;37.50;;;;;;5021568;28;20209;-60
2023/12/20 03:00:27;;;;;;;1.60;1.43;;;8.50;37.50;;;;;;5032928;28;20668;-59
2023/12/20 03:02:53;;;;;;;1.73;1.63;;;8.50;37.70;;;;;;5028057;28;20234;-59
2023/12/20 03:05:20;;;;;;;1.90;1.80;;;8.50;38.10;;;;;;5031338;28;20295;-57
2023/12/20 03:07:47;;;;;;;1.73;1.63;;;8.50;38.40;;;;;;5032835;28;20221;-60
2023/12/20 03:10:13;;;;;;;1.70;1.60;;;8.60;38.20;;;;;;5031248;28;20244;-60
2023/12/20 03:12:40;;;;;;;1.50;1.50;;;8.50;38.90;;;;;;5017072;28;20232;-60
2023/12/20 03:15:07;;;;;;;1.47;1.47;;;8.60;39.00;;;;;;5016640;28;20427;-60
2023/12/20 03:17:33;;;;;;;1.90;1.80;;;8.50;39.30;;;;;;5028080;28;20244;-59
2023/12/20 03:20:00;;;;;;;3.23;1.87;;;8.60;39.70;;;;;;5028610;28;20610;-60
2023/12/20 03:22:26;;;;;;;1.83;1.73;;;8.60;39.70;;;;;;5028330;28;20233;-58
2023/12/20 03:24:53;;;;;;;1.80;1.70;;;8.70;39.80;;;;;;5021259;28;20652;-59
2023/12/20 03:27:19;;;;;;;2.97;1.83;;;8.60;39.80;;;;;;5020120;28;20260;-60
2023/12/20 03:29:46;;;;;;;1.77;1.67;;;8.40;41.10;;;;;;5021255;28;20749;-60
2023/12/20 03:32:12;;;;;;;1.83;1.73;;;8.60;40.90;;;;;;5027705;28;20210;-60
2023/12/20 03:34:39;;;;;;;2.47;1.83;;;8.40;41.40;;;;;;5023177;28;20620;-60
2023/12/20 03:37:05;;;;;;;1.80;1.70;;;8.50;41.80;;;;;;5025527;28;20236;-59
2023/12/20 03:39:32;;;;;;;1.87;1.60;;;8.50;42.00;;;;;;5032280;28;20263;-58
2023/12/20 03:41:58;;;;;;;1.70;1.60;;;8.60;42.30;;;;;;5023242;28;20260;-60
2023/12/20 03:44:25;;;;;;;1.70;1.60;;;8.60;42.70;;;;;;5024639;28;20255;-58
2023/12/20 03:46:51;;;;;;;1.70;1.60;;;8.60;42.80;;;;;;5014571;28;20343;-60
2023/12/20 03:49:18;;;;;;;2.07;1.80;;;8.60;43.30;;;;;;5029604;28;20252;-59
2023/12/20 03:51:44;;;;;;;2.57;1.73;;;8.50;44.20;;;;;;5029026;28;20271;-60
2023/12/20 03:54:10;;;;;;;1.70;1.60;;;8.50;44.30;;;;;;5024353;28;20197;-59
2023/12/20 03:56:37;;;;;;;1.70;1.60;;;8.50;44.20;;;;;;5023393;28;20646;-60
2023/12/20 03:59:03;;;;;;;2.40;1.70;;;8.40;45.40;;;;;;5031210;28;20212;-59
2023/12/20 04:01:30;;;;;;;2.00;1.80;;;8.30;46.80;;;;;;5031707;28;20299;-59
2023/12/20 04:03:56;;;;;;;3.57;2.00;;;8.40;47.40;;;;;;5021597;28;20249;-59
2023/12/20 04:06:23;;;;;;;2.13;1.87;;;8.40;47.60;;;;;;5023618;28;20732;-60
2023/12/20 04:08:50;;;;;;;1.70;1.60;;;8.40;48.20;;;;;;5027101;28;20244;-60
2023/12/20 04:11:16;;;;;;;1.83;1.73;;;8.10;49.20;;;;;;5031922;28;20220;-59
2023/12/20 04:13:43;;;;;;;2.20;2.00;;;8.00;49.60;;;;;;5020765;28;20260;-60
2023/12/20 04:16:09;;;;;;;1.70;1.60;;;8.20;49.40;;;;;;5022926;28;20279;-60
2023/12/20 04:18:36;;;;;;;1.87;1.77;;;8.30;49.10;;;;;;5028845;28;20240;-60
2023/12/20 04:21:02;;;;;;;4.60;1.80;;;8.30;49.60;;;;;;5020462;28;20283;-60
2023/12/20 04:23:29;;;;;;;2.00;1.90;;;8.20;49.80;;;;;;5012959;28;20206;-59
2023/12/20 04:25:56;;;;;;;1.63;1.53;;;8.20;50.00;;;;;;5016554;28;20603;-60
2023/12/20 04:28:22;;;;;;;1.60;1.50;;;8.30;50.50;;;;;;5024336;28;20293;-60
2023/12/20 04:30:49;;;;;;;1.90;1.80;;;8.20;50.80;;;;;;5022162;28;20209;-60
2023/12/20 04:33:15;;;;;;;1.97;1.87;;;8.10;51.80;;;;;;5023269;28;20443;-58
2023/12/20 04:35:42;;;;;;;2.33;2.13;;;8.10;52.10;;;;;;5024804;28;20257;-58
2023/12/20 04:38:09;;;;;;;2.07;1.97;;;8.10;52.30;;;;;;5021212;28;20215;-59
2023/12/20 04:40:35;;;;;;;2.20;2.10;;;8.10;53.20;;;;;;5026653;28;20233;-60
2023/12/20 04:43:02;;;;;;;2.33;2.13;;;8.10;52.90;;;;;;5024211;28;20269;-60
2023/12/20 04:45:28;;;;;;;2.10;2.00;;;8.00;52.80;;;;;;5024419;28;20233;-59
2023/12/20 04:47:55;;;;;;;2.20;2.03;;;8.10;52.90;;;;;;5023265;28;20205;-59
2023/12/20 04:50:21;;;;;;;2.97;2.77;;;8.00;53.00;;;;;;5029977;28;20259;-60
2023/12/20 04:52:48;;;;;;;2.43;2.23;;;7.90;53.90;;;;;;5030888;28;20217;-60
2023/12/20 04:55:14;;;;;;;2.07;1.97;;;7.90;54.60;;;;;;5029235;28;20239;-60
2023/12/20 04:57:41;;;;;;;2.37;2.20;;;7.90;55.20;;;;;;5023320;28;20212;-60
2023/12/20 05:00:08;;;;;;;2.40;2.30;;;7.70;56.50;;;;;;5022980;28;20233;-60
2023/12/20 05:02:34;;;;;;;2.53;2.33;;;7.80;56.40;;;;;;5019341;28;20208;-60
2023/12/20 05:05:01;;;;;;;3.10;2.90;;;7.70;56.90;;;;;;5030862;28;20334;-60
2023/12/20 05:07:27;;;;;;;2.63;2.43;;;7.70;57.90;;;;;;5027002;28;20233;-58
2023/12/20 05:09:54;;;;;;;2.97;2.77;;;7.60;58.50;;;;;;5027821;28;20212;-59
2023/12/20 05:12:20;;;;;;;3.40;3.10;;;7.60;58.90;;;;;;5026208;28;20218;-60
2023/12/20 05:14:47;;;;;;;2.70;2.43;;;7.60;59.10;;;;;;5020466;28;20701;-60
2023/12/20 05:17:13;;;;;;;3.03;2.83;;;7.60;60.30;;;;;;5019442;28;20209;-60
2023/12/20 05:19:40;;;;;;;3.00;2.80;;;7.50;60.50;;;;;;5024096;28;20247;-59
2023/12/20 05:22:06;;;;;;;3.30;3.03;;;7.50;60.70;;;;;;5030566;28;20590;-58
2023/12/20 05:24:33;;;;;;;3.90;2.70;;;7.50;60.60;;;;;;5022237;28;20271;-60
2023/12/20 05:26:59;;;;;;;2.70;2.50;;;7.50;61.20;;;;;;5026430;28;20256;-59
2023/12/20 05:29:26;;;;;;;2.80;2.60;;;7.50;61.30;;;;;;5020336;28;20299;-60
2023/12/20 05:31:52;;;;;;;4.03;3.03;;;7.40;61.90;;;;;;5030514;28;20247;-59
2023/12/20 05:34:20;;;;;;;2.80;2.60;;;7.50;61.90;;;;;;5022576;28;20234;-59
2023/12/20 05:36:46;;;;;;;3.77;3.03;;;7.30;62.30;;;;;;5030350;28;20255;-60
2023/12/20 05:39:13;;;;;;;3.07;2.83;;;7.30;62.30;;;;;;5029402;28;20916;-60
2023/12/20 05:41:39;;;;;;;2.30;2.20;;;7.30;62.90;;;;;;5031206;28;20235;-57
2023/12/20 05:44:06;;;;;;;3.13;2.80;;;7.10;63.50;;;;;;5029779;28;20240;-60
2023/12/20 05:46:32;;;;;;;3.00;2.80;;;7.30;63.10;;;;;;5030765;28;20262;-60
2023/12/20 05:48:59;;;;;;;2.97;2.77;;;7.30;63.40;;;;;;5026253;28;20215;-60
2023/12/20 05:51:25;;;;;;;2.93;2.60;;;7.20;62.40;;;;;;5034379;28;20285;-60
2023/12/20 05:53:52;;;;;;;2.97;2.77;;;7.10;62.50;;;;;;5034151;28;20220;-60
2023/12/20 05:56:18;;;;;;;4.03;2.73;;;7.20;61.70;;;;;;5033547;28;20258;-59
2023/12/20 05:58:45;;;;;;;2.67;2.53;;;7.10;61.60;;;;;;5025710;28;20247;-60
2023/12/20 06:01:11;;;;;;;2.77;2.57;;;7.00;61.50;;;;;;5023888;28;20224;-60
2023/12/20 06:03:38;;;;;;;2.80;2.47;;;6.80;62.90;;;;;;5022266;28;20290;-60
2023/12/20 06:06:04;;;;;;;2.77;2.57;;;7.00;62.50;;;;;;5031350;28;20255;-59
2023/12/20 06:08:31;;;;;;;2.83;2.63;;;6.90;62.50;;;;;;5025693;28;20286;-60
2023/12/20 06:10:57;;;;;;;3.30;2.63;;;6.90;62.60;;;;;;5026393;28;20212;-60
2023/12/20 06:13:24;;;;;;;2.70;2.50;;;7.00;62.50;;;;;;5026607;28;20208;-60
2023/12/20 06:15:51;;;;;;;2.83;2.63;;;7.00;61.40;;;;;;5032403;28;20227;-60
2023/12/20 06:18:17;;;;;;;3.23;2.90;;;7.00;62.40;;;;;;5032051;28;20236;-60
2023/12/20 06:20:43;;;;;;;3.17;2.97;;;7.00;61.40;;;;;;5014186;28;20235;-60
2023/12/20 06:23:10;;;;;;;2.90;2.70;;;7.00;64.80;;;;;;5021426;28;20704;-60
2023/12/20 06:25:37;;;;;;;2.80;2.60;;;7.00;62.90;;;;;;5022620;28;20323;-60
2023/12/20 06:28:03;;;;;;;2.70;2.60;;;6.90;62.50;;;;;;5033324;28;20266;-60
2023/12/20 06:30:30;;;;;;;2.90;2.60;;;6.80;62.90;;;;;;5025087;28;20207;-58
2023/12/20 06:32:57;;;;;;;2.63;2.43;;;6.70;62.70;;;;;;5024895;28;20206;-60
2023/12/20 06:35:24;;;;;;;2.63;2.50;;;6.60;63.10;;;;;;5032969;28;20282;-60
2023/12/20 06:37:50;;;;;;;2.90;2.70;;;6.60;63.40;;;;;;5025044;28;20242;-59
2023/12/20 06:40:17;;;;;;;2.53;2.33;;;6.70;62.40;;;;;;5017593;28;20230;-60
2023/12/20 06:42:43;;;;;;;2.80;2.60;;;6.60;63.50;;;;;;5022139;28;20209;-60
2023/12/20 06:45:10;;;;;;;3.30;3.00;;;6.60;77.80;;;;;;5019290;28;20782;-59
2023/12/20 06:47:36;;;;;;;3.20;2.90;;;6.60;63.60;;;;;;5021803;28;20761;-59
2023/12/20 06:50:03;;;;;;;2.90;2.70;;;6.60;64.00;;;;;;5025588;28;20258;-60
2023/12/20 06:52:29;;;;;;;3.37;3.17;;;6.30;64.80;;;;;;5026407;28;20208;-60
2023/12/20 06:54:56;;;;;;;2.90;2.70;;;6.40;64.80;;;;;;5028777;28;20626;-60
2023/12/20 06:57:23;;;;;;;2.90;2.70;;;6.50;64.90;;;;;;5021380;28;20249;-61
2023/12/20 06:59:49;;;;;;;2.73;2.53;;;6.50;64.00;;;;;;5027460;28;20202;-60
2023/12/20 07:02:16;;;;;;;3.83;2.77;;;6.60;64.00;;;;;;5021363;28;20641;-60
2023/12/20 07:04:42;;;;;;;2.70;2.50;;;6.50;64.00;;;;;;5024431;28;20325;-60
2023/12/20 07:07:09;;;;;;;2.60;2.40;;;6.40;64.10;;;;;;5026168;28;20277;-61
2023/12/20 07:09:35;;;;;;;2.53;2.43;;;6.40;64.80;;;;;;5032415;28;20211;-58
2023/12/20 07:12:02;;;;;;;2.30;2.20;;;6.50;64.00;;;;;;5003299;28;20671;-60
2023/12/20 07:14:29;;;;;;;2.80;2.40;;;6.40;64.20;;;;;;5023092;28;20290;-60
2023/12/20 07:16:55;;;;;;;2.23;2.13;;;6.50;63.00;;;;;;5023218;28;20208;-60
2023/12/20 07:19:22;;;;;;;2.30;2.20;;;6.50;63.00;;;;;;5029701;28;20240;-60
2023/12/20 07:21:48;;;;;;;2.20;2.10;;;6.50;63.00;;;;;;5022918;28;20234;-60
2023/12/20 07:24:15;;;;;;;2.20;2.10;;;6.50;63.00;;;;;;5023673;28;20236;-60
2023/12/20 07:26:41;;;;;;;2.27;2.10;;;6.60;62.50;;;;;;5023827;28;20266;-61
2023/12/20 07:29:08;;;;;;;2.40;2.30;;;6.70;62.50;;;;;;5027142;28;20230;-61
2023/12/20 07:31:34;;;;;;;2.10;2.00;;;6.60;62.20;;;;;;5017953;28;20618;-60
2023/12/20 07:34:01;;;;;;;2.10;2.00;;;6.70;62.90;;;;;;5025006;28;20653;-59
2023/12/20 07:36:27;;;;;;;2.77;2.40;;;6.60;62.00;;;;;;5023634;28;20250;-61
2023/12/20 07:38:54;;;;;;;2.30;2.20;;;6.50;62.90;;;;;;5029732;28;20246;-60
2023/12/20 07:41:21;;;;;;;2.27;2.07;;;6.70;62.60;;;;;;5026994;28;20206;-60
2023/12/20 07:43:49;;;;;;;2.27;2.17;;;6.60;62.30;;;;;;5019691;28;20283;-58
2023/12/20 07:46:15;;;;;;;3.03;2.70;;;6.70;62.10;;;;;;5024722;28;20276;-60
2023/12/20 07:48:42;;;;;;;2.20;2.10;;;6.30;64.20;;;;;;5027172;28;20204;-60
2023/12/20 07:51:09;;;;;;;1.80;1.70;;;6.60;63.10;;;;;;5027937;28;20215;-60
2023/12/20 07:53:37;;;;;;;2.00;1.90;;;6.40;63.30;;;;;;5031310;28;20631;-60
2023/12/20 07:56:03;;;;;;;2.00;1.90;;;6.50;62.50;;;;;;5023721;28;20237;-60
2023/12/20 07:58:31;;;;;;;2.93;1.90;;;6.60;62.20;;;;;;5018948;28;20780;-61
2023/12/20 08:00:57;;;;;;;1.90;1.80;;;6.40;62.50;;;;;;5021972;28;20210;-59
2023/12/20 08:03:24;;;;;;;2.40;2.30;;;6.60;62.70;;;;;;5011421;28;20249;-60
2023/12/20 08:05:50;;;;;;;2.03;1.87;;;6.50;62.30;;;;;;5024815;28;20712;-59
2023/12/20 08:08:17;;;;;;;1.80;1.70;;;6.40;63.00;;;;;;5030995;28;20239;-59
2023/12/20 08:10:43;;;;;;;1.90;1.80;;;6.40;62.90;;;;;;5025591;28;20214;-60
2023/12/20 08:13:10;;;;;;;1.90;1.80;;;6.40;62.80;;;;;;5029065;28;20235;-60
2023/12/20 08:15:37;;;;;;;2.73;2.00;;;6.30;63.60;;;;;;5018061;28;20255;-60
2023/12/20 08:18:04;;;;;;;1.87;1.77;;;6.40;63.70;;;;;;5022998;28;20303;-60
2023/12/20 08:20:30;;;;;;;2.00;1.90;;;6.30;63.80;;;;;;5022135;28;20263;-60
2023/12/20 08:22:57;;;;;;;1.80;1.70;;;6.30;64.60;;;;;;5027848;28;20203;-59
2023/12/20 08:25:23;;;;;;;1.87;1.77;;;6.30;63.90;;;;;;5026536;28;20399;-58
2023/12/20 08:27:50;;;;;;;1.83;1.73;;;6.40;63.90;;;;;;5025218;28;20268;-60
2023/12/20 08:30:17;;;;;;;1.83;1.67;;;6.40;63.30;;;;;;5015294;28;20241;-62
2023/12/20 08:32:46;;;;;;;1.93;1.83;;;6.40;63.30;;;;;;5015184;28;20345;-58
2023/12/20 08:35:13;;;;;;;2.00;1.90;;;6.40;62.80;;;;;;5002717;28;20248;-58
2023/12/20 08:37:39;;;;;;;1.90;1.80;;;6.10;63.90;;;;;;5022315;28;20261;-58
2023/12/20 08:40:04;;;;;;;2.37;1.70;;;6.00;64.50;;;;;;5019776;28;20638;-58
2023/12/20 08:42:32;;;;;;;1.70;1.60;;;6.10;64.60;;;;;;5029850;28;20800;-57
2023/12/20 08:44:59;;;;;;;2.20;2.10;;;6.30;64.10;;;;;;5021411;28;20265;-57
2023/12/20 08:47:25;;;;;;;2.00;1.90;;;6.30;63.00;;;;;;5029930;28;20224;-57
2023/12/20 08:49:56;;;;;;;1.77;1.67;;;6.30;63.00;;;;;;5017955;28;20238;-59
2023/12/20 08:52:22;;;;;;;2.50;2.40;;;6.40;63.30;;;;;;5022127;28;20574;-59
2023/12/20 08:54:48;;;;;;;1.90;1.80;;;6.30;63.20;;;;;;5020552;28;20320;-56
2023/12/20 08:57:15;;;;;;;1.90;1.80;;;6.50;62.90;;;;;;5022541;28;20236;-61
2023/12/20 08:59:42;;;;;;;1.90;1.80;;;6.50;63.00;;;;;;5021018;28;20678;-58
2023/12/20 09:02:08;;;;;;;1.93;1.83;;;6.60;63.10;;;;;;5024019;28;20258;-58
2023/12/20 09:04:35;;;;;;;1.90;1.80;;;6.50;63.90;;;;;;5023817;28;20258;-58
2023/12/20 09:07:02;;;;;;;1.77;1.67;;;6.60;63.50;;;;;;5020197;28;20241;-57
2023/12/20 09:09:28;;;;;;;1.90;1.80;;;6.70;62.70;;;;;;5018897;28;20272;-60
2023/12/20 09:11:55;;;;;;;1.87;1.80;;;6.60;62.90;;;;;;5022327;28;20242;-61
2023/12/20 09:14:22;;;;;;;1.80;1.70;;;6.70;62.50;;;;;;5021824;28;20207;-58
2023/12/20 09:16:50;;;;;;;1.80;1.70;;;6.60;62.70;;;;;;5023128;28;20253;-59
2023/12/20 09:19:17;;;;;;;1.80;1.70;;;6.60;63.10;;;;;;5027724;28;20200;-64
2023/12/20 09:21:43;;;;;;;1.80;1.70;;;6.60;63.30;;;;;;5024445;28;20235;-60
2023/12/20 09:24:10;;;;;;;2.00;1.87;;;6.60;62.90;;;;;;5028388;28;20739;-58
2023/12/20 09:26:36;;;;;;;2.20;2.10;;;6.70;63.00;;;;;;5012032;28;20330;-58
2023/12/20 09:29:03;;;;;;;2.20;2.10;;;6.60;62.90;;;;;;5027913;28;20238;-58
2023/12/20 09:31:29;;;;;;;2.10;2.00;;;6.70;63.10;;;;;;5004294;28;20203;-60
2023/12/20 09:33:56;;;;;;;1.90;1.80;;;6.70;63.40;;;;;;5004785;28;20300;-56
2023/12/20 09:36:22;;;;;;;2.00;1.90;;;6.70;63.10;;;;;;5028856;28;20494;-59
2023/12/20 09:38:49;;;;;;;2.23;2.13;;;6.80;62.50;;;;;;5029851;28;20685;-59
2023/12/20 09:41:17;;;;;;;2.00;1.90;;;6.70;62.60;;;;;;5025969;28;20207;-60
2023/12/20 09:43:43;;;;;;;1.80;1.70;;;6.50;63.40;;;;;;5018533;28;20297;-58
2023/12/20 09:46:10;;;;;;;1.90;1.80;;;6.40;64.00;;;;;;5010620;28;20323;-58
2023/12/20 09:48:36;;;;;;;2.20;2.10;;;6.30;65.40;;;;;;5016469;28;20301;-59
2023/12/20 09:51:03;;;;;;;2.07;1.97;;;6.50;64.40;;;;;;5023880;28;20669;-60
2023/12/20 09:53:29;;;;;;;1.97;1.87;;;6.60;63.50;;;;;;5029843;28;20206;-60
2023/12/20 09:55:56;;;;;;;2.23;2.13;;;6.30;64.70;;;;;;5023036;28;20254;-57
2023/12/20 09:58:22;;;;;;;2.00;1.90;;;6.30;64.10;;;;;;5017302;28;20199;-58
2023/12/20 10:00:49;;;;;;;1.97;1.87;;;6.50;64.70;;;;;;5018811;28;20234;-58
2023/12/20 10:03:15;;;;;;;2.50;2.30;;;6.50;64.00;;;;;;5022466;28;20260;-59
2023/12/20 10:05:42;;;;;;;2.33;2.23;;;6.70;63.20;;;;;;5024091;28;20580;-60
2023/12/20 10:08:08;;;;;;;2.20;2.00;;;6.70;63.30;;;;;;5019319;28;20739;-53
2023/12/20 10:10:35;;;;;;;3.10;2.20;;;6.50;64.90;;;;;;5015083;28;20273;-59
2023/12/20 10:13:01;;;;;;;2.90;2.30;;;7.10;65.90;;;;;;5007313;28;21644;-58
2023/12/20 10:15:28;;;;;;;4.13;2.20;;;7.50;66.60;;;;;;5021172;28;20726;-53
2023/12/20 10:17:54;;;;;;;34.60;9.57;;;7.70;62.50;;;;;;5020188;28;20678;-54
2023/12/20 10:20:21;;;;;;;3.23;2.30;;;7.90;62.00;;;;;;5021920;28;20238;-55
2023/12/20 10:22:48;;;;;;;1.93;1.80;;;7.90;61.20;;;;;;4997749;28;20249;-54
2023/12/20 10:25:15;;;;;;;1.83;1.73;;;7.70;60.60;;;;;;5023747;28;20236;-57
2023/12/20 10:27:41;;;;;;;2.23;2.00;;;7.30;61.60;;;;;;5029382;28;20209;-57
2023/12/20 10:30:08;;;;;;;2.27;2.07;;;7.40;62.50;;;;;;5015831;28;20232;-57
2023/12/20 10:32:34;;;;;;;1.80;1.70;;;7.20;63.10;;;;;;5018904;28;20220;-58
2023/12/20 10:35:02;;;;;;;1.83;1.77;;;7.30;63.10;;;;;;5018616;28;20279;-57
2023/12/20 10:37:27;;;;;;;1.97;1.70;;;7.20;63.10;;;;;;5020178;28;20235;-54
2023/12/20 10:39:56;;;;;;;2.00;1.90;;;7.20;63.70;;;;;;5031424;28;20682;-58
2023/12/20 10:42:22;;;;;;;2.10;2.00;;;7.10;65.00;;;;;;5022492;28;20231;-58
2023/12/20 10:44:49;;;;;;;2.00;1.90;;;7.20;64.80;;;;;;5020190;28;20335;-57
2023/12/20 10:47:15;;;;;;;1.97;1.87;;;7.20;64.50;;;;;;5016300;28;20258;-59
2023/12/20 10:49:42;;;;;;;2.17;2.07;;;7.10;64.10;;;;;;5020481;28;20244;-58
2023/12/20 10:52:08;;;;;;;1.90;1.80;;;6.90;64.50;;;;;;5031960;28;20236;-59
2023/12/20 10:54:35;;;;;;;2.03;1.93;;;7.00;63.90;;;;;;5028880;28;20238;-58
2023/12/20 10:57:01;;;;;;;2.10;1.93;;;7.10;64.30;;;;;;5027860;28;20225;-59
2023/12/20 10:59:28;;;;;;;1.80;1.70;;;7.10;63.50;;;;;;5018564;28;20244;-58
2023/12/20 11:01:54;;;;;;;2.30;2.03;;;7.10;63.40;;;;;;5018045;28;20212;-56
2023/12/20 11:04:21;;;;;;;2.10;1.90;;;7.10;63.50;;;;;;5022866;28;20205;-57
2023/12/20 11:06:47;;;;;;;2.10;2.00;;;7.10;63.70;;;;;;5009451;28;20333;-57
2023/12/20 11:09:14;;;;;;;1.90;1.80;;;7.00;64.30;;;;;;5019006;28;20211;-60
2023/12/20 11:11:40;;;;;;;2.17;2.07;;;7.00;64.50;;;;;;5022071;28;20210;-59
2023/12/20 11:14:08;;;;;;;2.13;2.03;;;7.00;63.60;;;;;;5020561;28;20210;-59
2023/12/20 11:16:34;;;;;;;2.40;2.20;;;6.90;63.90;;;;;;5006222;28;21016;-56
2023/12/20 11:19:00;;;;;;;2.40;2.20;;;6.90;64.10;;;;;;5010530;28;20295;-59
2023/12/20 11:21:27;;;;;;;2.57;2.37;;;7.10;63.90;;;;;;5021066;28;20700;-59
2023/12/20 11:23:54;;;;;;;2.07;1.97;;;7.00;64.30;;;;;;5029703;28;21838;-58
2023/12/20 11:26:20;;;;;;;2.37;2.17;;;7.10;63.90;;;;;;5021153;28;20285;-58
2023/12/20 11:28:46;;;;;;;2.87;2.17;;;7.10;63.50;;;;;;5020491;28;20307;-56
2023/12/20 11:31:14;;;;;;;2.63;2.43;;;7.20;63.30;;;;;;5022556;28;20667;-59
2023/12/20 11:33:40;;;;;;;3.07;2.87;;;7.30;63.30;;;;;;5019077;28;20504;-56
2023/12/20 11:36:07;;;;;;;2.50;2.40;;;7.20;62.80;;;;;;5026808;28;20227;-55
2023/12/20 11:38:33;;;;;;;2.33;2.23;;;7.30;62.40;;;;;;5015126;28;20275;-53
2023/12/20 11:41:03;;;;;;;2.40;2.30;;;7.30;62.50;;;;;;5019880;28;20302;-59
2023/12/20 11:43:30;;;;;;;2.70;2.50;;;7.20;62.80;;;;;;5027958;28;20207;-58
2023/12/20 11:45:56;;;;;;;2.40;2.30;;;7.20;62.50;;;;;;5024653;28;20279;-59
2023/12/20 11:48:22;;;;;;;2.50;2.40;;;7.30;62.50;;;;;;5025583;28;21293;-59
2023/12/20 11:50:49;;;;;;;2.77;2.50;;;7.40;62.10;;;;;;5014873;28;20235;-59
2023/12/20 11:53:15;;;;;;;2.40;2.30;;;7.40;61.70;;;;;;5021460;28;20239;-57
2023/12/20 11:55:42;;;;;;;2.50;2.30;;;7.10;61.60;;;;;;5020731;28;20414;-59
2023/12/20 11:58:09;;;;;;;2.30;2.20;;;7.10;62.00;;;;;;5024451;28;20203;-58
2023/12/20 12:00:35;;;;;;;3.20;2.50;;;7.20;62.20;;;;;;5023255;28;20205;-59
2023/12/20 12:03:03;;;;;;;2.33;2.20;;;7.20;61.30;;;;;;5025789;28;20298;-56
2023/12/20 12:05:30;;;;;;;2.30;2.20;;;7.10;61.50;;;;;;5027034;28;20236;-57
2023/12/20 12:07:57;;;;;;;2.63;2.43;;;7.20;61.20;;;;;;5027157;28;20608;-57
2023/12/20 12:10:23;;;;;;;2.40;2.20;;;7.20;61.50;;;;;;5023451;28;20231;-59
2023/12/20 12:12:50;;;;;;;2.30;2.20;;;7.20;61.00;;;;;;5021135;28;20209;-55
2023/12/20 12:15:16;;;;;;;2.07;1.97;;;7.20;60.90;;;;;;5013752;28;20258;-58
2023/12/20 12:17:43;;;;;;;2.20;2.10;;;7.10;61.30;;;;;;5020997;28;20286;-58
2023/12/20 12:20:09;;;;;;;2.37;2.13;;;7.20;60.80;;;;;;5022072;28;20290;-54
2023/12/20 12:22:36;;;;;;;2.20;2.10;;;7.40;60.00;;;;;;5025300;28;20754;-57
2023/12/20 12:25:03;;;;;;;2.50;2.30;;;7.30;59.60;;;;;;5021112;28;20276;-54
2023/12/20 12:27:29;;;;;;;2.67;2.47;;;7.40;59.50;;;;;;5026006;28;20637;-57
2023/12/20 12:29:56;;;;;;;2.50;2.40;;;7.40;59.50;;;;;;5029423;28;20243;-58
2023/12/20 12:32:22;;;;;;;2.20;2.00;;;7.30;59.50;;;;;;5025900;28;20240;-57
2023/12/20 12:34:49;;;;;;;2.33;2.23;;;7.30;59.40;;;;;;5022082;28;20273;-58
2023/12/20 12:37:16;;;;;;;2.40;2.20;;;7.30;59.30;;;;;;5019390;28;20223;-56
2023/12/20 12:39:42;;;;;;;2.40;2.30;;;7.40;59.30;;;;;;5022548;28;20293;-59
2023/12/20 12:42:09;;;;;;;2.67;2.47;;;7.40;59.00;;;;;;5026600;28;20216;-56
2023/12/20 12:44:35;;;;;;;2.30;2.20;;;7.50;59.20;;;;;;5023646;28;20752;-56
2023/12/20 12:47:03;;;;;;;3.10;2.90;;;7.50;58.80;;;;;;5020943;28;20603;-59
2023/12/20 12:49:30;;;;;;;74.30;45.53;;;7.50;59.90;;;;;;5023442;28;20244;-64
2023/12/20 12:51:58;;;;;;;11.93;9.77;;;11.90;82.20;;;;;;5016711;28;20710;-64
2023/12/20 12:54:24;;;;;;;2.37;2.27;;;14.30;46.60;;;;;;5020209;28;20213;-64